Time;durP1;ratioP1;P1;durP2;ratioP2;P2;SDS_P1;SDS_P2;PMS_P1;PMS_P2;Temp;Humidity;BMP_temperature;BMP_pressure;BME280_temperature;BME280_humidity;BME280_pressure;Samples;Min_cycle;Max_cycle;Signal;HPM_P1;HPM_P2
2022/09/12 00:01:24;;;;;;;22.20;15.68;;;13.00;99.90;;;;;;5054930;28;20044;-79
2022/09/12 00:03:58;;;;;;;18.23;14.90;;;13.10;99.90;;;;;;5072624;28;20115;-78
2022/09/12 00:06:27;;;;;;;23.95;16.70;;;13.00;99.90;;;;;;5072540;28;20044;-79
2022/09/12 00:08:55;;;;;;;19.17;14.70;;;13.00;99.90;;;;;;5054794;28;20036;-79
2022/09/12 00:11:21;;;;;;;25.17;17.48;;;13.10;99.90;;;;;;5054706;28;20044;-79
2022/09/12 00:13:47;;;;;;;28.48;18.20;;;13.00;99.90;;;;;;5054644;28;20362;-77
2022/09/12 00:16:19;;;;;;;13.40;11.30;;;13.00;99.90;;;;;;5072257;28;20045;-79
2022/09/12 00:18:45;;;;;;;14.23;12.57;;;13.00;99.90;;;;;;5054783;28;20047;-78
2022/09/12 00:21:12;;;;;;;16.23;12.95;;;13.00;99.90;;;;;;5072266;28;20360;-78
2022/09/12 00:23:38;;;;;;;17.65;12.25;;;13.00;99.90;;;;;;5072414;28;20094;-79
2022/09/12 00:26:05;;;;;;;19.77;10.52;;;12.90;99.90;;;;;;5072138;28;20056;-77
2022/09/12 00:28:34;;;;;;;64.30;14.85;;;12.90;99.90;;;;;;5054799;28;20143;-78
2022/09/12 00:31:04;;;;;;;15.20;10.60;;;12.90;99.90;;;;;;5054764;28;20349;-78
2022/09/12 00:33:30;;;;;;;14.55;11.18;;;12.80;99.90;;;;;;5072372;28;20040;-78
2022/09/12 00:35:56;;;;;;;12.52;9.93;;;12.80;99.90;;;;;;5072165;28;20430;-79
2022/09/12 00:38:22;;;;;;;18.67;13.77;;;12.80;99.90;;;;;;5054548;28;20119;-78
2022/09/12 00:40:48;;;;;;;20.77;14.23;;;12.80;99.90;;;;;;5075596;28;20080;-79
2022/09/12 00:43:35;;;;;;;12.00;8.77;;;12.70;99.90;;;;;;5058312;28;20040;-79
2022/09/12 00:46:29;;;;;;;23.77;15.57;;;12.70;99.90;;;;;;5075988;28;20067;-79
2022/09/12 00:49:00;;;;;;;14.88;10.48;;;12.70;99.90;;;;;;5039573;28;20060;-79
2022/09/12 00:51:29;;;;;;;15.70;9.98;;;12.70;99.90;;;;;;5038419;28;20049;-79
2022/09/12 00:53:58;;;;;;;13.23;10.30;;;12.70;99.90;;;;;;5055360;28;20045;-79
2022/09/12 00:56:25;;;;;;;18.50;12.00;;;12.60;99.90;;;;;;5055847;28;20048;-79
2022/09/12 00:59:04;;;;;;;15.18;11.70;;;12.60;99.90;;;;;;5038216;28;20045;-79
2022/09/12 01:01:30;;;;;;;18.20;12.60;;;12.60;99.90;;;;;;5038175;28;20102;-78
2022/09/12 01:03:56;;;;;;;43.05;20.50;;;12.50;99.90;;;;;;5038202;28;20387;-79
2022/09/12 01:06:27;;;;;;;20.15;13.68;;;12.50;99.90;;;;;;5055468;28;20088;-79
2022/09/12 01:08:54;;;;;;;22.55;14.45;;;12.50;99.90;;;;;;5038079;28;20443;-79
2022/09/12 01:11:21;;;;;;;15.38;12.38;;;12.50;99.90;;;;;;5055368;28;20044;-78
2022/09/12 01:13:48;;;;;;;40.53;15.00;;;12.50;99.90;;;;;;5055099;28;20091;-79
2022/09/12 01:16:14;;;;;;;30.23;13.43;;;12.50;99.90;;;;;;5055326;28;20052;-79
2022/09/12 01:18:49;;;;;;;22.83;13.23;;;12.50;99.90;;;;;;5037672;28;20052;-79
2022/09/12 01:21:37;;;;;;;38.90;12.88;;;12.50;99.90;;;;;;5055132;28;20465;-78
2022/09/12 01:24:41;;;;;;;21.13;13.32;;;12.50;99.90;;;;;;5037728;28;20048;-78
2022/09/12 01:27:34;;;;;;;19.98;13.35;;;12.50;99.90;;;;;;5037721;28;20049;-79
2022/09/12 01:30:15;;;;;;;17.65;13.20;;;12.50;99.90;;;;;;5037662;28;20379;-78
2022/09/12 01:33:17;;;;;;;27.25;18.60;;;12.50;99.90;;;;;;5037598;28;20080;-78
2022/09/12 01:36:16;;;;;;;17.88;14.50;;;12.50;99.90;;;;;;5054988;28;20049;-78
2022/09/12 01:39:03;;;;;;;40.45;23.27;;;12.50;99.90;;;;;;5055034;28;20415;-79
2022/09/12 01:41:49;;;;;;;29.80;20.52;;;12.50;99.90;;;;;;5054815;28;20091;-78
2022/09/12 01:44:24;;;;;;;42.97;23.50;;;12.60;99.90;;;;;;5037408;28;20146;-79
2022/09/12 01:47:01;;;;;;;17.77;13.23;;;12.60;99.90;;;;;;5037219;28;20041;-79
2022/09/12 01:49:57;;;;;;;310.83;42.45;;;12.50;99.90;;;;;;5052274;28;20060;-79
2022/09/12 01:52:36;;;;;;;153.35;30.20;;;12.50;99.90;;;;;;5056376;28;20063;-79
2022/09/12 01:55:18;;;;;;;39.97;23.20;;;12.50;99.90;;;;;;5056938;28;20078;-78
2022/09/12 01:57:53;;;;;;;46.60;24.15;;;12.50;99.90;;;;;;5074514;28;20044;-78
2022/09/12 02:00:19;;;;;;;43.35;22.02;;;12.50;99.90;;;;;;5074742;28;20139;-78
2022/09/12 02:03:09;;;;;;;51.03;26.15;;;12.50;99.90;;;;;;5057086;28;20490;-77
2022/09/12 02:06:10;;;;;;;41.83;24.38;;;12.50;99.90;;;;;;5040290;28;20072;-78
2022/09/12 02:08:45;;;;;;;46.65;25.45;;;12.60;99.90;;;;;;5035362;28;20048;-78
2022/09/12 02:11:12;;;;;;;39.28;25.38;;;12.60;99.90;;;;;;5056818;28;20336;-78
2022/09/12 02:13:57;;;;;;;33.50;22.27;;;12.60;99.90;;;;;;5074300;28;20044;-79
2022/09/12 02:16:58;;;;;;;36.25;23.77;;;12.60;99.90;;;;;;5074210;28;20036;-78
2022/09/12 02:19:36;;;;;;;43.53;27.05;;;12.50;99.90;;;;;;5064730;28;20053;-78
2022/09/12 02:22:04;;;;;;;48.10;27.40;;;12.50;99.90;;;;;;5074231;28;20052;-78
2022/09/12 02:24:37;;;;;;;53.35;30.98;;;12.50;99.90;;;;;;5073592;28;20095;-79
2022/09/12 02:27:12;;;;;;;60.33;30.85;;;12.60;99.90;;;;;;5056379;28;20076;-79
2022/09/12 02:29:38;;;;;;;77.03;33.47;;;12.60;99.90;;;;;;5056579;28;20412;-77
2022/09/12 02:32:13;;;;;;;68.88;33.72;;;12.60;99.90;;;;;;5074016;28;20098;-78
2022/09/12 02:34:47;;;;;;;51.15;31.23;;;12.60;99.90;;;;;;5073867;28;20131;-78
2022/09/12 02:37:28;;;;;;;63.35;32.85;;;12.60;99.90;;;;;;5073661;28;20048;-78
2022/09/12 02:39:56;;;;;;;53.22;30.80;;;12.70;99.90;;;;;;5073506;28;20099;-79
2022/09/12 02:42:22;;;;;;;87.78;35.97;;;12.70;99.90;;;;;;5056225;28;20048;-77
2022/09/12 02:44:50;;;;;;;52.38;32.55;;;12.70;99.90;;;;;;5056196;28;20121;-78
2022/09/12 02:47:27;;;;;;;60.17;34.08;;;12.70;99.90;;;;;;5073630;28;20098;-78
2022/09/12 02:49:54;;;;;;;77.82;36.03;;;12.70;99.90;;;;;;5055421;28;20177;-78
2022/09/12 02:52:20;;;;;;;55.00;32.10;;;12.70;99.90;;;;;;5056099;28;20044;-78
2022/09/12 02:54:47;;;;;;;54.42;31.75;;;12.70;99.90;;;;;;5073031;28;20357;-79
2022/09/12 02:57:20;;;;;;;82.10;35.78;;;12.70;99.90;;;;;;5055869;28;20469;-78
2022/09/12 02:59:47;;;;;;;57.80;30.65;;;12.70;99.90;;;;;;5055868;28;20343;-79
2022/09/12 03:02:35;;;;;;;58.65;32.63;;;12.70;99.90;;;;;;5055463;28;20446;-78
2022/09/12 03:05:42;;;;;;;63.13;31.52;;;12.60;99.90;;;;;;5055764;28;20044;-80
2022/09/12 03:08:41;;;;;;;85.90;36.72;;;12.60;99.90;;;;;;5055706;28;20097;-79
2022/09/12 03:11:16;;;;;;;54.00;32.42;;;12.60;99.90;;;;;;5053268;28;20067;-78
2022/09/12 03:13:56;;;;;;;56.35;32.33;;;12.60;99.90;;;;;;5055295;28;20357;-78
2022/09/12 03:16:50;;;;;;;50.97;32.05;;;12.60;99.90;;;;;;5073184;28;20454;-78
2022/09/12 03:19:39;;;;;;;64.72;35.67;;;12.60;99.90;;;;;;5072905;28;20044;-79
2022/09/12 03:22:34;;;;;;;60.80;35.55;;;12.60;99.90;;;;;;5072803;28;20430;-78
2022/09/12 03:25:20;;;;;;;75.18;36.63;;;12.60;99.90;;;;;;5055391;28;20119;-78
2022/09/12 03:28:06;;;;;;;49.88;31.33;;;12.60;99.90;;;;;;5055228;28;20048;-78
2022/09/12 03:30:47;;;;;;;64.18;32.60;;;12.60;99.90;;;;;;5055191;28;20537;-77
2022/09/12 03:33:17;;;;;;;62.67;35.40;;;12.60;99.90;;;;;;5055318;28;20357;-79
2022/09/12 03:35:44;;;;;;;64.50;35.17;;;12.60;99.90;;;;;;5072591;28;20117;-79
2022/09/12 03:38:10;;;;;;;66.75;37.38;;;12.60;99.90;;;;;;5055311;28;20454;-78
2022/09/12 03:40:37;;;;;;;65.85;37.78;;;12.50;99.90;;;;;;5055158;28;20045;-78
2022/09/12 03:43:04;;;;;;;59.95;35.83;;;12.50;99.90;;;;;;5072771;28;20044;-79
2022/09/12 03:45:30;;;;;;;74.70;40.55;;;12.60;99.90;;;;;;5072735;28;20075;-78
2022/09/12 03:47:57;;;;;;;63.13;36.97;;;12.60;99.90;;;;;;5054805;28;20088;-78
2022/09/12 03:50:22;;;;;;;58.53;35.65;;;12.60;99.90;;;;;;5072244;28;20045;-78
2022/09/12 03:52:48;;;;;;;69.35;37.97;;;12.60;99.90;;;;;;5072531;28;20086;-79
2022/09/12 03:55:14;;;;;;;65.60;38.30;;;12.60;99.90;;;;;;5054787;28;20513;-79
2022/09/12 03:57:40;;;;;;;65.50;37.55;;;12.60;99.90;;;;;;5055075;28;20044;-78
2022/09/12 04:00:07;;;;;;;71.93;39.30;;;12.60;99.90;;;;;;5072616;28;20503;-78
2022/09/12 04:02:34;;;;;;;82.40;41.88;;;12.60;99.90;;;;;;5072673;28;20051;-79
2022/09/12 04:05:00;;;;;;;63.97;37.40;;;12.60;99.90;;;;;;5072669;28;20052;-79
2022/09/12 04:07:26;;;;;;;64.72;37.55;;;12.60;99.90;;;;;;5055099;28;20512;-78
2022/09/12 04:09:52;;;;;;;60.38;37.00;;;12.60;99.90;;;;;;5072439;28;20613;-78
2022/09/12 04:12:18;;;;;;;61.50;36.88;;;12.60;99.90;;;;;;5055009;28;20450;-79
2022/09/12 04:14:44;;;;;;;69.22;38.78;;;12.60;99.90;;;;;;5056479;28;20056;-78
2022/09/12 04:17:10;;;;;;;60.97;36.13;;;12.60;99.90;;;;;;5076587;28;20045;-78
2022/09/12 04:19:36;;;;;;;61.58;37.72;;;12.70;99.90;;;;;;5076272;28;20090;-78
2022/09/12 04:22:02;;;;;;;63.47;37.90;;;12.70;99.90;;;;;;5058584;28;20056;-78
2022/09/12 04:24:28;;;;;;;62.42;37.47;;;12.60;99.90;;;;;;5076447;28;20449;-78
2022/09/12 04:26:53;;;;;;;69.97;39.60;;;12.70;99.90;;;;;;5058842;28;20154;-78
2022/09/12 04:29:19;;;;;;;74.45;40.00;;;12.70;99.90;;;;;;5058723;28;20036;-78
2022/09/12 04:31:45;;;;;;;71.10;39.03;;;12.70;99.90;;;;;;5076273;28;20041;-79
2022/09/12 04:34:11;;;;;;;70.40;37.67;;;12.80;99.90;;;;;;5076055;28;20462;-79
2022/09/12 04:36:37;;;;;;;66.18;40.13;;;12.80;99.90;;;;;;5076137;28;20055;-78
2022/09/12 04:39:04;;;;;;;68.25;39.38;;;12.80;99.90;;;;;;5058754;28;20361;-78
2022/09/12 04:41:37;;;;;;;72.88;41.10;;;12.90;99.90;;;;;;5058595;28;20330;-79
2022/09/12 04:44:10;;;;;;;67.13;38.70;;;12.90;99.90;;;;;;5058237;28;20051;-80
2022/09/12 04:46:38;;;;;;;68.60;39.78;;;12.90;99.90;;;;;;5075849;28;20040;-78
2022/09/12 04:49:05;;;;;;;70.22;39.90;;;13.00;99.90;;;;;;5075799;28;20139;-80
2022/09/12 04:51:34;;;;;;;74.50;42.15;;;13.00;99.90;;;;;;5058507;28;20446;-78
2022/09/12 04:54:03;;;;;;;68.13;38.40;;;13.00;99.90;;;;;;5075824;28;20059;-78
2022/09/12 04:56:30;;;;;;;67.03;39.13;;;13.10;99.90;;;;;;5075996;28;20581;-78
2022/09/12 04:58:57;;;;;;;64.32;39.83;;;13.10;99.90;;;;;;5075898;28;20363;-79
2022/09/12 05:01:23;;;;;;;77.05;40.80;;;13.10;99.90;;;;;;5075538;28;20442;-78
2022/09/12 05:03:52;;;;;;;65.70;38.30;;;13.10;99.90;;;;;;5075672;28;20044;-79
2022/09/12 05:06:21;;;;;;;66.22;39.40;;;13.20;99.90;;;;;;5041596;28;20036;-79
2022/09/12 05:08:47;;;;;;;69.32;40.05;;;13.20;99.90;;;;;;5058062;28;20071;-77
2022/09/12 05:11:15;;;;;;;63.80;39.55;;;13.30;99.90;;;;;;5075605;28;20091;-78
2022/09/12 05:13:41;;;;;;;68.70;41.22;;;13.30;99.90;;;;;;5075385;28;20102;-78
2022/09/12 05:16:09;;;;;;;74.55;41.05;;;13.30;99.90;;;;;;5057804;28;20381;-78
2022/09/12 05:18:36;;;;;;;66.25;39.17;;;13.30;99.90;;;;;;5058131;28;20041;-78
2022/09/12 05:21:05;;;;;;;67.72;39.85;;;13.40;99.90;;;;;;5075381;28;20059;-78
2022/09/12 05:23:31;;;;;;;68.63;39.17;;;13.40;99.90;;;;;;5041224;28;20048;-78
2022/09/12 05:25:58;;;;;;;64.60;38.03;;;13.40;99.90;;;;;;5056398;28;20116;-79
2022/09/12 05:28:28;;;;;;;61.97;39.05;;;13.40;99.90;;;;;;5075177;28;20044;-79
2022/09/12 05:31:24;;;;;;;64.68;38.70;;;13.40;99.90;;;;;;5074920;28;20516;-78
2022/09/12 05:33:51;;;;;;;63.47;38.83;;;13.50;99.90;;;;;;5049056;28;20055;-78
2022/09/12 05:36:23;;;;;;;68.85;39.60;;;13.50;99.90;;;;;;5075109;28;20523;-78
2022/09/12 05:38:50;;;;;;;76.50;41.90;;;13.50;99.90;;;;;;5057284;28;20475;-78
2022/09/12 05:41:17;;;;;;;62.33;39.42;;;13.50;99.90;;;;;;5074909;28;20040;-76
2022/09/12 05:43:44;;;;;;;72.32;41.78;;;13.60;99.90;;;;;;5074954;28;20040;-78
2022/09/12 05:46:20;;;;;;;70.38;39.80;;;13.60;99.90;;;;;;5057372;28;20115;-79
2022/09/12 05:48:47;;;;;;;73.32;42.42;;;13.60;99.90;;;;;;5056851;28;20053;-77
2022/09/12 05:51:19;;;;;;;72.72;39.35;;;13.60;99.90;;;;;;5057453;28;20052;-76
2022/09/12 05:53:51;;;;;;;68.22;40.00;;;13.70;99.90;;;;;;5063601;28;20113;-78
2022/09/12 05:56:19;;;;;;;70.97;41.60;;;13.60;99.90;;;;;;5074533;28;20415;-77
2022/09/12 05:58:47;;;;;;;69.53;40.97;;;13.70;99.90;;;;;;5074772;28;20053;-78
2022/09/12 06:01:17;;;;;;;72.47;40.42;;;13.60;99.90;;;;;;5074746;28;20048;-77
2022/09/12 06:03:45;;;;;;;66.20;39.30;;;13.70;99.90;;;;;;5074426;28;20054;-78
2022/09/12 06:06:12;;;;;;;71.75;42.17;;;13.70;99.90;;;;;;5056782;28;20323;-79
2022/09/12 06:08:40;;;;;;;71.15;40.58;;;13.70;99.90;;;;;;5074412;28;20051;-78
2022/09/12 06:11:06;;;;;;;75.55;41.47;;;13.80;99.90;;;;;;5056803;28;20041;-79
2022/09/12 06:13:35;;;;;;;73.40;42.80;;;13.80;99.90;;;;;;5056855;28;20407;-78
2022/09/12 06:16:11;;;;;;;71.68;41.50;;;13.80;99.90;;;;;;5056230;28;20059;-78
2022/09/12 06:18:38;;;;;;;72.03;40.58;;;13.90;99.90;;;;;;5073850;28;20454;-78
2022/09/12 06:21:09;;;;;;;70.07;41.90;;;14.00;99.90;;;;;;5073973;28;20043;-77
2022/09/12 06:23:36;;;;;;;70.00;40.10;;;14.00;99.90;;;;;;5074183;28;20032;-76
2022/09/12 06:26:03;;;;;;;74.43;42.03;;;14.00;99.90;;;;;;5056718;28;20054;-78
2022/09/12 06:28:30;;;;;;;71.35;41.75;;;14.10;99.90;;;;;;5056544;28;20105;-78
2022/09/12 06:31:05;;;;;;;70.22;42.50;;;14.10;99.90;;;;;;5056474;28;20079;-79
2022/09/12 06:33:33;;;;;;;67.53;40.38;;;14.20;99.90;;;;;;5056512;28;20048;-78
2022/09/12 06:36:08;;;;;;;77.10;43.25;;;14.20;99.90;;;;;;5056072;28;20082;-77
2022/09/12 06:38:34;;;;;;;71.13;40.30;;;14.30;99.90;;;;;;5055904;28;20043;-78
2022/09/12 06:41:06;;;;;;;82.95;45.05;;;14.30;99.90;;;;;;5073861;28;20044;-77
2022/09/12 06:43:33;;;;;;;63.00;39.00;;;14.30;99.90;;;;;;5056197;28;20040;-78
2022/09/12 06:45:59;;;;;;;74.43;42.25;;;14.40;99.90;;;;;;5056251;28;20048;-77
2022/09/12 06:48:26;;;;;;;71.00;42.22;;;14.40;99.90;;;;;;5055873;28;20048;-78
2022/09/12 06:51:06;;;;;;;79.30;44.05;;;14.40;99.90;;;;;;5073601;28;20055;-77
2022/09/12 06:53:33;;;;;;;72.75;42.50;;;14.40;99.90;;;;;;5073648;28;20044;-79
2022/09/12 06:56:03;;;;;;;71.43;41.60;;;14.50;99.90;;;;;;5055638;28;20045;-79
2022/09/12 06:58:29;;;;;;;;;;;14.50;99.90;;;;;;5073948;28;20222;-79
2022/09/12 07:01:04;;;;;;;70.13;40.83;;;14.60;99.90;;;;;;5055943;28;19916;-78
2022/09/12 07:03:30;;;;;;;69.68;39.92;;;14.60;99.90;;;;;;5055902;28;20048;-79
2022/09/12 07:05:56;;;;;;;68.50;40.85;;;14.60;99.90;;;;;;5055704;28;20036;-78
2022/09/12 07:08:22;;;;;;;75.72;42.75;;;14.70;99.90;;;;;;5055835;28;20453;-79
2022/09/12 07:10:48;;;;;;;71.15;41.25;;;14.70;99.90;;;;;;5073182;28;20045;-80
2022/09/12 07:13:14;;;;;;;73.65;44.67;;;14.80;99.90;;;;;;5073096;28;20044;-79
2022/09/12 07:15:40;;;;;;;75.00;44.22;;;14.80;99.90;;;;;;5055389;28;20044;-80
2022/09/12 07:18:05;;;;;;;71.22;42.40;;;14.80;99.90;;;;;;5055470;28;20044;-78
2022/09/12 07:20:38;;;;;;;74.18;43.05;;;14.90;99.90;;;;;;5055387;28;20052;-78
2022/09/12 07:23:03;;;;;;;76.25;43.83;;;14.90;99.90;;;;;;5055132;28;20124;-78
2022/09/12 07:25:29;;;;;;;70.55;42.45;;;15.00;99.90;;;;;;5072760;28;20120;-80
2022/09/12 07:27:55;;;;;;;73.80;43.92;;;15.00;99.90;;;;;;5055495;28;20040;-79
2022/09/12 07:30:21;;;;;;;70.47;41.53;;;15.10;99.90;;;;;;5055415;28;20060;-77
2022/09/12 07:32:54;;;;;;;77.68;43.40;;;15.10;99.90;;;;;;5072936;28;20051;-78
2022/09/12 07:35:20;;;;;;;77.10;46.13;;;15.20;99.90;;;;;;5055146;28;20490;-79
2022/09/12 07:37:46;;;;;;;72.00;43.40;;;15.20;99.90;;;;;;5072470;28;20044;-78
2022/09/12 07:40:12;;;;;;;73.72;43.30;;;15.20;99.90;;;;;;5055290;28;20075;-77
2022/09/12 07:42:38;;;;;;;74.47;44.80;;;15.30;99.90;;;;;;5055175;28;20048;-78
2022/09/12 07:45:04;;;;;;;72.70;45.20;;;15.40;99.90;;;;;;5055129;28;20464;-79
2022/09/12 07:47:29;;;;;;;75.20;44.63;;;15.50;99.90;;;;;;5055174;28;20397;-81
2022/09/12 07:49:55;;;;;;;71.43;44.60;;;15.60;99.90;;;;;;5051511;28;20991;-77
2022/09/12 07:52:21;;;;;;;74.85;44.50;;;15.70;99.90;;;;;;5072222;28;20466;-79
2022/09/12 07:54:47;;;;;;;75.22;42.85;;;15.90;99.90;;;;;;5072491;28;20051;-79
2022/09/12 07:57:14;;;;;;;68.60;42.78;;;16.10;99.90;;;;;;5072583;28;20721;-78
2022/09/12 07:59:41;;;;;;;69.10;40.05;;;16.30;99.90;;;;;;5072608;28;20040;-78
2022/09/12 08:02:12;;;;;;;73.60;45.47;;;16.40;99.90;;;;;;5072663;28;20048;-78
2022/09/12 08:04:39;;;;;;;71.68;44.90;;;16.50;99.90;;;;;;5072644;28;20105;-78
2022/09/12 08:07:05;;;;;;;69.40;42.42;;;16.60;99.90;;;;;;5054830;28;20048;-79
2022/09/12 08:09:31;;;;;;;62.28;40.60;;;16.80;99.90;;;;;;5054856;28;20048;-79
2022/09/12 08:11:57;;;;;;;73.00;45.70;;;16.90;99.90;;;;;;5054728;28;20045;-78
2022/09/12 08:14:23;;;;;;;71.93;45.78;;;16.90;99.90;;;;;;5054818;28;20103;-77
2022/09/12 08:16:48;;;;;;;70.80;43.38;;;17.00;99.90;;;;;;5054727;28;20367;-78
2022/09/12 08:19:14;;;;;;;76.35;45.85;;;17.10;99.90;;;;;;5072218;28;20045;-80
2022/09/12 08:21:40;;;;;;;76.90;43.90;;;17.10;99.90;;;;;;5054805;28;20127;-79
2022/09/12 08:24:06;;;;;;;71.50;44.85;;;17.20;99.90;;;;;;5054430;28;20474;-81
2022/09/12 08:26:33;;;;;;;70.07;41.40;;;17.30;99.90;;;;;;5054654;28;20131;-79
2022/09/12 08:28:59;;;;;;;70.75;42.75;;;17.50;99.90;;;;;;5054726;28;20084;-80
2022/09/12 08:31:27;;;;;;;66.57;41.15;;;17.70;99.90;;;;;;5054666;28;20048;-79
2022/09/12 08:33:57;;;;;;;62.85;41.38;;;18.00;99.90;;;;;;5072148;28;20048;-80
2022/09/12 08:36:24;;;;;;;;;;;18.30;99.90;;;;;;5055099;28;20143;-83
2022/09/12 08:38:54;;;;;;;64.70;39.35;;;18.50;99.90;;;;;;5071849;28;19969;-79
2022/09/12 08:42:09;;;;;;;64.15;38.90;;;18.50;99.90;;;;;;5054301;28;20045;-79
2022/09/12 08:44:59;;;;;;;63.72;40.25;;;18.60;99.90;;;;;;5057846;28;20358;-80
2022/09/12 08:47:34;;;;;;;;;;;18.50;99.90;;;;;;5038395;28;20072;-80
2022/09/12 08:50:14;;;;;;;63.28;39.35;;;18.60;99.90;;;;;;5071746;28;19981;-80
2022/09/12 08:52:48;;;;;;;63.67;41.05;;;18.70;99.90;;;;;;5071965;28;20044;-79
2022/09/12 08:55:31;;;;;;;58.40;36.92;;;18.80;99.90;;;;;;5054232;28;20075;-80
2022/09/12 08:57:59;;;;;;;58.22;36.85;;;18.90;99.90;;;;;;5071980;28;20052;-80
2022/09/12 09:00:37;;;;;;;60.13;39.33;;;19.00;99.90;;;;;;5073275;28;20357;-81
2022/09/12 09:03:28;;;;;;;60.35;38.10;;;19.30;99.90;;;;;;5057939;28;20190;-80
2022/09/12 09:06:07;;;;;;;58.30;35.75;;;19.40;99.90;;;;;;5075420;28;20108;-81
2022/09/12 09:08:52;;;;;;;56.30;36.25;;;19.50;99.90;;;;;;5076368;28;20048;-82
2022/09/12 09:11:44;;;;;;;52.47;34.58;;;19.50;99.90;;;;;;5057929;28;20036;-81
2022/09/12 09:14:49;;;;;;;63.42;38.30;;;19.60;99.90;;;;;;5075277;28;20055;-81
2022/09/12 09:17:48;;;;;;;47.97;33.58;;;19.80;99.90;;;;;;5055723;28;20048;-79
2022/09/12 09:20:36;;;;;;;54.80;34.35;;;20.40;99.90;;;;;;5064747;28;20048;-80
2022/09/12 09:23:19;;;;;;;47.97;31.30;;;20.90;99.90;;;;;;5075125;28;20098;-82
2022/09/12 09:26:14;;;;;;;45.47;31.17;;;21.60;99.90;;;;;;5052749;28;20052;-80
2022/09/12 09:28:42;;;;;;;48.28;33.45;;;21.90;99.90;;;;;;5050597;28;20056;-80
2022/09/12 09:31:17;;;;;;;45.00;29.63;;;21.90;99.90;;;;;;5037507;28;20359;-81
2022/09/12 09:33:48;;;;;;;43.45;28.63;;;22.00;99.90;;;;;;5054732;28;20094;-80
2022/09/12 09:36:24;;;;;;;42.58;30.30;;;22.00;99.90;;;;;;5077897;28;20100;-81
2022/09/12 09:38:59;;;;;;;44.10;30.60;;;21.90;99.90;;;;;;5074542;28;20048;-81
2022/09/12 09:41:28;;;;;;;43.67;28.95;;;21.70;99.90;;;;;;5074993;28;20040;-80
2022/09/12 09:43:56;;;;;;;51.40;33.10;;;21.70;99.90;;;;;;5056974;28;20465;-80
2022/09/12 09:46:22;;;;;;;41.28;28.55;;;21.70;99.90;;;;;;5074658;28;20048;-81
2022/09/12 09:48:50;;;;;;;37.22;25.95;;;21.70;99.90;;;;;;5054014;28;20048;-79
2022/09/12 09:51:27;;;;;;;39.83;28.80;;;22.10;99.90;;;;;;5056596;28;20366;-81
2022/09/12 09:54:01;;;;;;;39.97;28.95;;;22.40;99.90;;;;;;5074431;28;20054;-81
2022/09/12 09:56:34;;;;;;;37.80;26.95;;;22.70;99.90;;;;;;5056863;28;20047;-81
2022/09/12 09:59:18;;;;;;;37.13;25.30;;;22.80;99.90;;;;;;5057046;28;20127;-80
2022/09/12 10:01:48;;;;;;;39.10;27.48;;;23.00;99.90;;;;;;5057010;28;20066;-81
2022/09/12 10:04:28;;;;;;;41.22;27.65;;;23.00;99.90;;;;;;5057048;28;20483;-81
2022/09/12 10:06:57;;;;;;;34.85;24.30;;;23.10;99.90;;;;;;5074422;28;20047;-81
2022/09/12 10:09:26;;;;;;;33.03;25.77;;;23.30;99.90;;;;;;5056626;28;20051;-83
2022/09/12 10:11:53;;;;;;;36.22;26.60;;;23.70;99.90;;;;;;5055892;28;20052;-82
2022/09/12 10:14:35;;;;;;;34.95;25.15;;;24.30;99.90;;;;;;5056430;28;20040;-80
2022/09/12 10:17:21;;;;;;;35.38;26.08;;;24.70;99.90;;;;;;5056654;28;20472;-80
2022/09/12 10:19:47;;;;;;;37.58;26.23;;;24.90;99.90;;;;;;5073969;28;20044;-82
2022/09/12 10:22:23;;;;;;;33.15;25.20;;;25.10;99.90;;;;;;5056436;28;20434;-83
2022/09/12 10:24:53;;;;;;;32.65;24.15;;;25.10;99.90;;;;;;5073977;28;20036;-81
2022/09/12 10:27:25;;;;;;;35.85;25.45;;;25.30;99.90;;;;;;5073932;28;20044;-80
2022/09/12 10:30:14;;;;;;;35.10;26.38;;;25.40;99.90;;;;;;5073953;28;20101;-83
2022/09/12 10:32:49;;;;;;;32.15;25.13;;;25.60;99.90;;;;;;5055978;28;20454;-80
2022/09/12 10:35:25;;;;;;;31.52;24.65;;;25.90;99.90;;;;;;5073300;28;20445;-80
2022/09/12 10:38:01;;;;;;;31.83;24.75;;;26.00;99.90;;;;;;5056400;28;20242;-81
2022/09/12 10:40:42;;;;;;;28.10;20.08;;;25.90;99.30;;;;;;5055954;28;20095;-81
2022/09/12 10:43:40;;;;;;;24.65;19.63;;;25.90;99.20;;;;;;5042924;28;20048;-80
2022/09/12 10:46:15;;;;;;;28.55;20.65;;;25.90;96.90;;;;;;5073453;28;20037;-81
2022/09/12 10:49:07;;;;;;;27.40;20.90;;;25.80;97.30;;;;;;5055592;28;20080;-81
2022/09/12 10:51:33;;;;;;;22.88;17.98;;;25.90;98.30;;;;;;5072517;28;20117;-82
2022/09/12 10:54:02;;;;;;;27.75;20.63;;;26.20;98.70;;;;;;5056014;28;20373;-81
2022/09/12 10:56:57;;;;;;;26.38;19.63;;;26.40;96.90;;;;;;5055971;28;20040;-81
2022/09/12 10:59:39;;;;;;;20.65;16.15;;;26.40;96.60;;;;;;5055580;28;20462;-81
2022/09/12 11:02:25;;;;;;;20.63;16.25;;;26.50;96.50;;;;;;5073187;28;20640;-80
2022/09/12 11:05:17;;;;;;;21.67;16.55;;;26.50;96.30;;;;;;5039138;28;20110;-82
2022/09/12 11:08:00;;;;;;;18.73;14.57;;;26.50;97.00;;;;;;5041361;28;20055;-81
2022/09/12 11:10:33;;;;;;;19.98;15.68;;;26.30;93.60;;;;;;5055679;28;20098;-82
2022/09/12 11:13:20;;;;;;;20.08;15.88;;;25.90;93.10;;;;;;5055645;28;20509;-79
2022/09/12 11:16:21;;;;;;;20.85;16.23;;;25.30;93.70;;;;;;5055088;28;20125;-81
2022/09/12 11:19:18;;;;;;;19.80;15.23;;;24.90;94.90;;;;;;5072867;28;20044;-80
2022/09/12 11:22:04;;;;;;;20.35;15.75;;;24.80;95.50;;;;;;5055443;28;20442;-81
2022/09/12 11:25:01;;;;;;;17.92;13.43;;;24.80;95.80;;;;;;5072990;28;20044;-81
2022/09/12 11:27:30;;;;;;;21.63;15.88;;;25.10;96.20;;;;;;5055015;28;20350;-81
2022/09/12 11:30:08;;;;;;;21.00;16.10;;;25.30;95.90;;;;;;5055100;28;20408;-81
2022/09/12 11:32:52;;;;;;;20.73;16.25;;;25.20;94.80;;;;;;5072842;28;20566;-81
2022/09/12 11:35:25;;;;;;;20.27;15.57;;;25.10;95.90;;;;;;5057829;28;20051;-81
2022/09/12 11:38:18;;;;;;;20.92;15.23;;;25.20;96.00;;;;;;5055168;28;20048;-80
2022/09/12 11:40:44;;;;;;;15.43;11.27;;;25.20;95.70;;;;;;5072528;28;20438;-81
2022/09/12 11:43:32;;;;;;;13.25;10.50;;;25.10;95.20;;;;;;5054532;28;20093;-82
2022/09/12 11:46:13;;;;;;;15.13;11.32;;;25.00;94.80;;;;;;5072184;28;20059;-80
2022/09/12 11:49:03;;;;;;;13.00;10.50;;;25.20;95.90;;;;;;5054514;28;20115;-81
2022/09/12 11:51:56;;;;;;;16.17;11.50;;;25.30;96.10;;;;;;5055161;28;20453;-81
2022/09/12 11:54:36;;;;;;;14.15;10.82;;;25.30;94.30;;;;;;5031608;28;20052;-82
2022/09/12 11:57:16;;;;;;;14.90;10.77;;;25.40;95.10;;;;;;5072115;28;20449;-81
2022/09/12 11:59:53;;;;;;;14.60;11.10;;;25.50;95.30;;;;;;5055036;28;20044;-82
2022/09/12 12:02:35;;;;;;;16.90;12.55;;;25.40;95.30;;;;;;5037804;28;20115;-80
2022/09/12 12:05:23;;;;;;;19.60;12.50;;;25.30;94.00;;;;;;5072153;28;20048;-82
2022/09/12 12:07:57;;;;;;;16.85;12.35;;;25.10;94.70;;;;;;5054669;28;20062;-82
2022/09/12 12:10:26;;;;;;;9.73;6.85;;;25.00;95.60;;;;;;5072186;28;20044;-79
2022/09/12 12:12:54;;;;;;;9.55;7.05;;;25.00;95.40;;;;;;5055400;28;20099;-80
2022/09/12 12:15:23;;;;;;;8.67;6.80;;;25.10;95.20;;;;;;5073441;28;20032;-81
2022/09/12 12:18:01;;;;;;;10.73;7.53;;;25.20;95.00;;;;;;5073511;28;20033;-82
2022/09/12 12:20:27;;;;;;;8.93;6.90;;;25.30;94.50;;;;;;5054666;28;20044;-81
2022/09/12 12:22:54;;;;;;;11.48;9.13;;;25.30;93.20;;;;;;5054661;28;20048;-81
2022/09/12 12:25:20;;;;;;;11.20;8.65;;;25.20;92.50;;;;;;5071925;28;20044;-81
2022/09/12 12:28:00;;;;;;;11.50;10.13;;;25.00;92.80;;;;;;5054424;28;20354;-81
2022/09/12 12:30:29;;;;;;;12.02;8.75;;;24.80;94.10;;;;;;5054452;28;20114;-81
2022/09/12 12:33:11;;;;;;;9.77;8.77;;;24.70;93.50;;;;;;5054365;28;20044;-81
2022/09/12 12:35:39;;;;;;;9.98;8.40;;;24.50;93.20;;;;;;5055836;28;20433;-81
2022/09/12 12:38:28;;;;;;;12.07;7.70;;;24.40;93.80;;;;;;5058297;28;20101;-82
2022/09/12 12:41:17;;;;;;;12.48;8.90;;;24.30;93.90;;;;;;5041854;28;20051;-81
2022/09/12 12:43:51;;;;;;;10.50;9.40;;;24.30;94.60;;;;;;5073224;28;20093;-81
2022/09/12 12:46:19;;;;;;;9.40;8.40;;;24.30;94.00;;;;;;5095976;28;20044;-81
2022/09/12 12:49:17;;;;;;;11.35;9.50;;;24.30;94.60;;;;;;5078079;28;20047;-81
2022/09/12 12:52:00;;;;;;;11.18;8.68;;;24.40;95.80;;;;;;5091443;28;20051;-80
2022/09/12 12:54:39;;;;;;;10.25;8.10;;;24.50;95.80;;;;;;5077705;28;20048;-80
2022/09/12 12:57:21;;;;;;;;;;;24.50;94.40;;;;;;5061526;28;20043;-80
2022/09/12 13:00:03;;;;;;;9.70;6.93;;;24.50;94.80;;;;;;5077919;28;19963;-80
2022/09/12 13:02:40;;;;;;;8.63;5.43;;;24.50;94.50;;;;;;5077947;28;20043;-81